sensor_id;sensor_type;location;lat;lon;timestamp;P1;durP1;ratioP1;P2;durP2;ratioP2
13879;SDS011;7010;48.200;16.332;2023-03-31T00:01:08;2.60;;;1.15;;
13879;SDS011;7010;48.200;16.332;2023-03-31T00:03:37;4.07;;;1.25;;
13879;SDS011;7010;48.200;16.332;2023-03-31T00:06:10;1.20;;;1.10;;
13879;SDS011;7010;48.200;16.332;2023-03-31T00:08:45;1.45;;;1.35;;
13879;SDS011;7010;48.200;16.332;2023-03-31T00:11:18;1.13;;;1.10;;
13879;SDS011;7010;48.200;16.332;2023-03-31T00:13:48;2.47;;;1.45;;
13879;SDS011;7010;48.200;16.332;2023-03-31T00:16:17;1.20;;;1.15;;
13879;SDS011;7010;48.200;16.332;2023-03-31T00:18:45;1.35;;;1.25;;
13879;SDS011;7010;48.200;16.332;2023-03-31T00:21:17;1.58;;;1.27;;
13879;SDS011;7010;48.200;16.332;2023-03-31T00:23:56;1.95;;;1.50;;
13879;SDS011;7010;48.200;16.332;2023-03-31T00:26:26;2.45;;;1.33;;
13879;SDS011;7010;48.200;16.332;2023-03-31T00:28:56;1.17;;;1.08;;
13879;SDS011;7010;48.200;16.332;2023-03-31T00:31:25;7.68;;;1.80;;
13879;SDS011;7010;48.200;16.332;2023-03-31T00:33:54;1.55;;;1.45;;
13879;SDS011;7010;48.200;16.332;2023-03-31T00:36:23;1.40;;;1.27;;
13879;SDS011;7010;48.200;16.332;2023-03-31T00:38:54;2.45;;;1.73;;
13879;SDS011;7010;48.200;16.332;2023-03-31T00:41:25;1.27;;;1.17;;
13879;SDS011;7010;48.200;16.332;2023-03-31T00:44:06;25.52;;;2.20;;
13879;SDS011;7010;48.200;16.332;2023-03-31T00:46:42;1.70;;;1.60;;
13879;SDS011;7010;48.200;16.332;2023-03-31T00:49:14;1.52;;;1.40;;
13879;SDS011;7010;48.200;16.332;2023-03-31T00:51:47;1.30;;;1.20;;
13879;SDS011;7010;48.200;16.332;2023-03-31T00:54:19;3.92;;;1.38;;
13879;SDS011;7010;48.200;16.332;2023-03-31T00:56:51;1.92;;;1.60;;
13879;SDS011;7010;48.200;16.332;2023-03-31T00:59:26;5.00;;;1.65;;
13879;SDS011;7010;48.200;16.332;2023-03-31T01:01:57;2.10;;;1.38;;
13879;SDS011;7010;48.200;16.332;2023-03-31T01:04:29;1.15;;;1.15;;
13879;SDS011;7010;48.200;16.332;2023-03-31T01:07:02;2.28;;;1.85;;
13879;SDS011;7010;48.200;16.332;2023-03-31T01:09:37;1.48;;;1.38;;
13879;SDS011;7010;48.200;16.332;2023-03-31T01:12:07;2.30;;;1.73;;
13879;SDS011;7010;48.200;16.332;2023-03-31T01:14:39;1.60;;;1.50;;
13879;SDS011;7010;48.200;16.332;2023-03-31T01:17:08;1.67;;;1.58;;
13879;SDS011;7010;48.200;16.332;2023-03-31T01:19:43;1.45;;;1.38;;
13879;SDS011;7010;48.200;16.332;2023-03-31T01:22:34;1.83;;;1.73;;
13879;SDS011;7010;48.200;16.332;2023-03-31T01:28:35;2.25;;;1.80;;
13879;SDS011;7010;48.200;16.332;2023-03-31T01:40:46;1.60;;;1.50;;
13879;SDS011;7010;48.200;16.332;2023-03-31T01:43:22;1.75;;;1.65;;
13879;SDS011;7010;48.200;16.332;2023-03-31T01:45:55;2.25;;;1.63;;
13879;SDS011;7010;48.200;16.332;2023-03-31T01:48:30;1.77;;;1.67;;
13879;SDS011;7010;48.200;16.332;2023-03-31T01:51:09;5.03;;;2.45;;
13879;SDS011;7010;48.200;16.332;2023-03-31T01:53:46;1.90;;;1.65;;
13879;SDS011;7010;48.200;16.332;2023-03-31T01:56:19;1.90;;;1.75;;
13879;SDS011;7010;48.200;16.332;2023-03-31T01:58:52;2.13;;;1.75;;
13879;SDS011;7010;48.200;16.332;2023-03-31T02:01:24;2.17;;;2.03;;
13879;SDS011;7010;48.200;16.332;2023-03-31T02:03:58;1.60;;;1.50;;
13879;SDS011;7010;48.200;16.332;2023-03-31T02:06:32;1.80;;;1.70;;
13879;SDS011;7010;48.200;16.332;2023-03-31T02:09:06;3.38;;;1.77;;
13879;SDS011;7010;48.200;16.332;2023-03-31T02:11:39;6.47;;;2.50;;
13879;SDS011;7010;48.200;16.332;2023-03-31T02:14:09;2.47;;;1.95;;
13879;SDS011;7010;48.200;16.332;2023-03-31T02:16:44;2.55;;;1.80;;
13879;SDS011;7010;48.200;16.332;2023-03-31T02:19:16;1.70;;;1.60;;
13879;SDS011;7010;48.200;16.332;2023-03-31T02:21:48;2.00;;;1.80;;
13879;SDS011;7010;48.200;16.332;2023-03-31T02:24:18;1.83;;;1.65;;
13879;SDS011;7010;48.200;16.332;2023-03-31T02:26:50;2.78;;;1.90;;
13879;SDS011;7010;48.200;16.332;2023-03-31T02:29:22;2.08;;;1.90;;
13879;SDS011;7010;48.200;16.332;2023-03-31T02:31:51;1.92;;;1.83;;
13879;SDS011;7010;48.200;16.332;2023-03-31T02:34:27;2.10;;;2.00;;
13879;SDS011;7010;48.200;16.332;2023-03-31T02:36:56;2.15;;;2.00;;
13879;SDS011;7010;48.200;16.332;2023-03-31T02:39:25;3.50;;;2.75;;
13879;SDS011;7010;48.200;16.332;2023-03-31T02:41:58;2.45;;;2.28;;
13879;SDS011;7010;48.200;16.332;2023-03-31T02:44:32;3.90;;;2.22;;
13879;SDS011;7010;48.200;16.332;2023-03-31T02:47:00;2.35;;;2.15;;
13879;SDS011;7010;48.200;16.332;2023-03-31T02:49:30;2.13;;;1.65;;
13879;SDS011;7010;48.200;16.332;2023-03-31T02:52:09;3.20;;;2.40;;
13879;SDS011;7010;48.200;16.332;2023-03-31T02:58:07;3.58;;;1.80;;
13879;SDS011;7010;48.200;16.332;2023-03-31T03:01:07;2.22;;;2.00;;
13879;SDS011;7010;48.200;16.332;2023-03-31T03:03:49;3.45;;;2.47;;
13879;SDS011;7010;48.200;16.332;2023-03-31T03:06:29;2.20;;;2.10;;
13879;SDS011;7010;48.200;16.332;2023-03-31T03:09:06;1.75;;;1.65;;
13879;SDS011;7010;48.200;16.332;2023-03-31T03:11:45;2.08;;;1.88;;
13879;SDS011;7010;48.200;16.332;2023-03-31T03:14:22;2.53;;;1.92;;
13879;SDS011;7010;48.200;16.332;2023-03-31T03:16:56;2.50;;;2.30;;
13879;SDS011;7010;48.200;16.332;2023-03-31T03:19:28;3.10;;;2.28;;
13879;SDS011;7010;48.200;16.332;2023-03-31T03:21:57;2.13;;;2.03;;
13879;SDS011;7010;48.200;16.332;2023-03-31T03:24:25;2.60;;;2.22;;
13879;SDS011;7010;48.200;16.332;2023-03-31T03:26:55;6.90;;;2.10;;
13879;SDS011;7010;48.200;16.332;2023-03-31T03:29:25;3.40;;;2.60;;
13879;SDS011;7010;48.200;16.332;2023-03-31T03:31:53;2.13;;;1.92;;
13879;SDS011;7010;48.200;16.332;2023-03-31T03:34:22;1.83;;;1.73;;
13879;SDS011;7010;48.200;16.332;2023-03-31T03:36:51;2.05;;;1.95;;
13879;SDS011;7010;48.200;16.332;2023-03-31T03:39:19;2.25;;;2.05;;
13879;SDS011;7010;48.200;16.332;2023-03-31T03:41:48;2.85;;;2.58;;
13879;SDS011;7010;48.200;16.332;2023-03-31T03:44:17;2.38;;;2.05;;
13879;SDS011;7010;48.200;16.332;2023-03-31T03:46:47;2.53;;;2.20;;
13879;SDS011;7010;48.200;16.332;2023-03-31T03:49:16;2.78;;;2.55;;
13879;SDS011;7010;48.200;16.332;2023-03-31T03:51:45;2.10;;;1.80;;
13879;SDS011;7010;48.200;16.332;2023-03-31T03:54:14;3.60;;;2.97;;
13879;SDS011;7010;48.200;16.332;2023-03-31T03:56:42;3.53;;;2.45;;
13879;SDS011;7010;48.200;16.332;2023-03-31T03:59:13;5.00;;;2.53;;
13879;SDS011;7010;48.200;16.332;2023-03-31T04:01:42;3.17;;;2.00;;
13879;SDS011;7010;48.200;16.332;2023-03-31T04:04:15;5.50;;;3.13;;
13879;SDS011;7010;48.200;16.332;2023-03-31T04:06:43;4.10;;;2.22;;
13879;SDS011;7010;48.200;16.332;2023-03-31T04:09:12;3.63;;;2.10;;
13879;SDS011;7010;48.200;16.332;2023-03-31T04:11:41;2.67;;;2.45;;
13879;SDS011;7010;48.200;16.332;2023-03-31T04:14:09;2.92;;;2.38;;
13879;SDS011;7010;48.200;16.332;2023-03-31T04:16:40;3.10;;;2.25;;
13879;SDS011;7010;48.200;16.332;2023-03-31T04:19:08;2.95;;;2.55;;
13879;SDS011;7010;48.200;16.332;2023-03-31T04:21:40;2.30;;;2.20;;
13879;SDS011;7010;48.200;16.332;2023-03-31T04:24:10;4.97;;;3.03;;
13879;SDS011;7010;48.200;16.332;2023-03-31T04:26:47;5.80;;;2.63;;
13879;SDS011;7010;48.200;16.332;2023-03-31T04:29:16;4.72;;;2.70;;
13879;SDS011;7010;48.200;16.332;2023-03-31T04:31:45;3.00;;;2.33;;
13879;SDS011;7010;48.200;16.332;2023-03-31T04:34:16;5.47;;;2.33;;
13879;SDS011;7010;48.200;16.332;2023-03-31T04:36:46;1.90;;;1.80;;
13879;SDS011;7010;48.200;16.332;2023-03-31T04:39:18;2.00;;;1.90;;
13879;SDS011;7010;48.200;16.332;2023-03-31T04:41:52;11.70;;;2.42;;
13879;SDS011;7010;48.200;16.332;2023-03-31T04:44:20;2.25;;;2.08;;
13879;SDS011;7010;48.200;16.332;2023-03-31T04:46:49;2.95;;;2.38;;
13879;SDS011;7010;48.200;16.332;2023-03-31T04:49:18;3.03;;;2.47;;
13879;SDS011;7010;48.200;16.332;2023-03-31T04:51:51;5.82;;;2.35;;
13879;SDS011;7010;48.200;16.332;2023-03-31T04:54:19;4.65;;;2.75;;
13879;SDS011;7010;48.200;16.332;2023-03-31T04:56:50;2.60;;;2.40;;
13879;SDS011;7010;48.200;16.332;2023-03-31T04:59:19;4.97;;;2.85;;
13879;SDS011;7010;48.200;16.332;2023-03-31T05:01:47;4.40;;;2.55;;
13879;SDS011;7010;48.200;16.332;2023-03-31T05:04:15;2.85;;;2.63;;
13879;SDS011;7010;48.200;16.332;2023-03-31T05:06:44;4.40;;;2.67;;
13879;SDS011;7010;48.200;16.332;2023-03-31T05:09:15;2.92;;;2.55;;
13879;SDS011;7010;48.200;16.332;2023-03-31T05:11:43;2.28;;;2.08;;
13879;SDS011;7010;48.200;16.332;2023-03-31T05:14:11;3.30;;;3.00;;
13879;SDS011;7010;48.200;16.332;2023-03-31T05:16:40;3.58;;;2.92;;
13879;SDS011;7010;48.200;16.332;2023-03-31T05:19:08;2.35;;;2.15;;
13879;SDS011;7010;48.200;16.332;2023-03-31T05:21:37;2.97;;;2.78;;
13879;SDS011;7010;48.200;16.332;2023-03-31T05:24:06;2.55;;;2.42;;
13879;SDS011;7010;48.200;16.332;2023-03-31T05:26:36;4.45;;;2.75;;
13879;SDS011;7010;48.200;16.332;2023-03-31T05:29:05;2.85;;;2.65;;
13879;SDS011;7010;48.200;16.332;2023-03-31T05:31:33;4.07;;;3.63;;
13879;SDS011;7010;48.200;16.332;2023-03-31T05:34:02;3.00;;;2.70;;
13879;SDS011;7010;48.200;16.332;2023-03-31T05:36:30;2.90;;;2.70;;
13879;SDS011;7010;48.200;16.332;2023-03-31T05:38:59;3.28;;;2.97;;
13879;SDS011;7010;48.200;16.332;2023-03-31T05:41:27;6.00;;;3.83;;
13879;SDS011;7010;48.200;16.332;2023-03-31T05:43:57;3.22;;;2.75;;
13879;SDS011;7010;48.200;16.332;2023-03-31T05:46:28;4.22;;;3.05;;
13879;SDS011;7010;48.200;16.332;2023-03-31T05:48:57;2.95;;;2.55;;
13879;SDS011;7010;48.200;16.332;2023-03-31T05:51:25;3.40;;;3.10;;
13879;SDS011;7010;48.200;16.332;2023-03-31T05:53:54;11.98;;;3.25;;
13879;SDS011;7010;48.200;16.332;2023-03-31T05:56:22;4.55;;;3.70;;
13879;SDS011;7010;48.200;16.332;2023-03-31T05:58:52;7.60;;;3.28;;
13879;SDS011;7010;48.200;16.332;2023-03-31T06:01:22;3.97;;;3.13;;
13879;SDS011;7010;48.200;16.332;2023-03-31T06:03:51;3.63;;;2.50;;
13879;SDS011;7010;48.200;16.332;2023-03-31T06:06:19;2.50;;;2.30;;
13879;SDS011;7010;48.200;16.332;2023-03-31T06:08:48;4.35;;;2.55;;
13879;SDS011;7010;48.200;16.332;2023-03-31T06:11:17;4.53;;;2.95;;
13879;SDS011;7010;48.200;16.332;2023-03-31T06:13:48;2.65;;;2.40;;
13879;SDS011;7010;48.200;16.332;2023-03-31T06:16:17;2.33;;;2.15;;
13879;SDS011;7010;48.200;16.332;2023-03-31T06:18:47;2.22;;;1.90;;
13879;SDS011;7010;48.200;16.332;2023-03-31T06:21:17;2.35;;;2.15;;
13879;SDS011;7010;48.200;16.332;2023-03-31T06:23:48;2.08;;;1.98;;
13879;SDS011;7010;48.200;16.332;2023-03-31T06:26:20;7.35;;;2.45;;
13879;SDS011;7010;48.200;16.332;2023-03-31T06:28:49;2.40;;;2.20;;
13879;SDS011;7010;48.200;16.332;2023-03-31T06:31:19;4.30;;;2.33;;
13879;SDS011;7010;48.200;16.332;2023-03-31T06:33:51;2.13;;;1.92;;
13879;SDS011;7010;48.200;16.332;2023-03-31T06:36:20;3.42;;;2.55;;
13879;SDS011;7010;48.200;16.332;2023-03-31T06:38:49;4.93;;;2.72;;
13879;SDS011;7010;48.200;16.332;2023-03-31T06:41:18;2.40;;;2.20;;
13879;SDS011;7010;48.200;16.332;2023-03-31T06:43:48;3.17;;;2.50;;
13879;SDS011;7010;48.200;16.332;2023-03-31T06:46:17;3.97;;;3.25;;
13879;SDS011;7010;48.200;16.332;2023-03-31T06:48:45;12.38;;;3.20;;
13879;SDS011;7010;48.200;16.332;2023-03-31T06:51:15;3.35;;;3.05;;
13879;SDS011;7010;48.200;16.332;2023-03-31T06:53:43;4.03;;;3.25;;
13879;SDS011;7010;48.200;16.332;2023-03-31T06:56:12;8.75;;;3.60;;
13879;SDS011;7010;48.200;16.332;2023-03-31T06:58:40;8.48;;;3.92;;
13879;SDS011;7010;48.200;16.332;2023-03-31T07:01:09;3.92;;;3.17;;
13879;SDS011;7010;48.200;16.332;2023-03-31T07:03:38;5.30;;;3.40;;
13879;SDS011;7010;48.200;16.332;2023-03-31T07:06:07;3.67;;;3.05;;
13879;SDS011;7010;48.200;16.332;2023-03-31T07:08:37;3.72;;;3.42;;
13879;SDS011;7010;48.200;16.332;2023-03-31T07:11:06;3.50;;;3.20;;
13879;SDS011;7010;48.200;16.332;2023-03-31T07:13:35;5.47;;;4.28;;
13879;SDS011;7010;48.200;16.332;2023-03-31T07:16:03;7.55;;;3.38;;
13879;SDS011;7010;48.200;16.332;2023-03-31T07:18:33;3.97;;;3.58;;
13879;SDS011;7010;48.200;16.332;2023-03-31T07:21:06;7.88;;;3.58;;
13879;SDS011;7010;48.200;16.332;2023-03-31T07:23:37;3.55;;;2.70;;
13879;SDS011;7010;48.200;16.332;2023-03-31T07:26:06;4.40;;;2.55;;
13879;SDS011;7010;48.200;16.332;2023-03-31T07:28:34;4.43;;;2.53;;
13879;SDS011;7010;48.200;16.332;2023-03-31T07:31:09;4.60;;;3.50;;
13879;SDS011;7010;48.200;16.332;2023-03-31T07:33:41;3.60;;;3.00;;
13879;SDS011;7010;48.200;16.332;2023-03-31T07:36:10;3.45;;;3.15;;
13879;SDS011;7010;48.200;16.332;2023-03-31T07:38:41;5.22;;;3.05;;
13879;SDS011;7010;48.200;16.332;2023-03-31T07:41:11;3.92;;;3.47;;
13879;SDS011;7010;48.200;16.332;2023-03-31T07:43:41;3.33;;;2.90;;
13879;SDS011;7010;48.200;16.332;2023-03-31T07:46:13;4.45;;;3.03;;
13879;SDS011;7010;48.200;16.332;2023-03-31T07:48:43;5.05;;;3.72;;
13879;SDS011;7010;48.200;16.332;2023-03-31T07:51:13;4.38;;;3.97;;
13879;SDS011;7010;48.200;16.332;2023-03-31T07:53:44;4.82;;;3.65;;
13879;SDS011;7010;48.200;16.332;2023-03-31T07:56:14;3.72;;;3.33;;
13879;SDS011;7010;48.200;16.332;2023-03-31T07:58:43;10.57;;;4.07;;
13879;SDS011;7010;48.200;16.332;2023-03-31T08:01:13;3.90;;;3.40;;
13879;SDS011;7010;48.200;16.332;2023-03-31T08:03:43;5.13;;;3.78;;
13879;SDS011;7010;48.200;16.332;2023-03-31T08:06:16;4.50;;;3.70;;
13879;SDS011;7010;48.200;16.332;2023-03-31T08:08:46;23.27;;;3.25;;
13879;SDS011;7010;48.200;16.332;2023-03-31T08:11:15;4.53;;;2.40;;
13879;SDS011;7010;48.200;16.332;2023-03-31T08:13:43;4.78;;;3.42;;
13879;SDS011;7010;48.200;16.332;2023-03-31T08:16:14;2.58;;;2.13;;
13879;SDS011;7010;48.200;16.332;2023-03-31T08:18:46;3.50;;;2.33;;
13879;SDS011;7010;48.200;16.332;2023-03-31T08:21:14;2.65;;;2.33;;
13879;SDS011;7010;48.200;16.332;2023-03-31T08:23:50;5.60;;;2.63;;
13879;SDS011;7010;48.200;16.332;2023-03-31T08:26:21;2.35;;;2.15;;
13879;SDS011;7010;48.200;16.332;2023-03-31T08:28:51;2.53;;;2.33;;
13879;SDS011;7010;48.200;16.332;2023-03-31T08:31:20;2.28;;;2.13;;
13879;SDS011;7010;48.200;16.332;2023-03-31T08:33:52;3.85;;;3.35;;
13879;SDS011;7010;48.200;16.332;2023-03-31T08:36:21;2.47;;;2.28;;
13879;SDS011;7010;48.200;16.332;2023-03-31T08:38:50;3.28;;;2.97;;
13879;SDS011;7010;48.200;16.332;2023-03-31T08:44:19;2.30;;;2.10;;
13879;SDS011;7010;48.200;16.332;2023-03-31T08:46:52;4.72;;;2.85;;
13879;SDS011;7010;48.200;16.332;2023-03-31T08:49:23;3.88;;;2.80;;
13879;SDS011;7010;48.200;16.332;2023-03-31T08:51:53;3.25;;;2.38;;
13879;SDS011;7010;48.200;16.332;2023-03-31T08:54:30;3.05;;;2.75;;
13879;SDS011;7010;48.200;16.332;2023-03-31T08:57:01;4.70;;;2.95;;
13879;SDS011;7010;48.200;16.332;2023-03-31T08:59:32;2.45;;;2.05;;
13879;SDS011;7010;48.200;16.332;2023-03-31T09:02:03;3.92;;;2.45;;
13879;SDS011;7010;48.200;16.332;2023-03-31T09:07:47;2.78;;;2.10;;
13879;SDS011;7010;48.200;16.332;2023-03-31T09:10:30;2.40;;;2.17;;
13879;SDS011;7010;48.200;16.332;2023-03-31T09:13:06;3.53;;;2.50;;
13879;SDS011;7010;48.200;16.332;2023-03-31T09:15:48;2.28;;;2.08;;
13879;SDS011;7010;48.200;16.332;2023-03-31T09:18:23;2.38;;;2.08;;
13879;SDS011;7010;48.200;16.332;2023-03-31T09:20:57;6.72;;;2.53;;
13879;SDS011;7010;48.200;16.332;2023-03-31T09:23:33;4.03;;;2.78;;
13879;SDS011;7010;48.200;16.332;2023-03-31T09:26:07;3.17;;;2.42;;
13879;SDS011;7010;48.200;16.332;2023-03-31T09:28:44;2.72;;;2.30;;
13879;SDS011;7010;48.200;16.332;2023-03-31T09:31:15;2.45;;;2.25;;
13879;SDS011;7010;48.200;16.332;2023-03-31T09:33:45;2.95;;;2.40;;
13879;SDS011;7010;48.200;16.332;2023-03-31T09:36:15;2.50;;;2.30;;
13879;SDS011;7010;48.200;16.332;2023-03-31T09:38:45;2.67;;;2.47;;
13879;SDS011;7010;48.200;16.332;2023-03-31T09:41:16;4.32;;;2.75;;
13879;SDS011;7010;48.200;16.332;2023-03-31T09:43:45;3.53;;;2.55;;
13879;SDS011;7010;48.200;16.332;2023-03-31T09:46:16;3.85;;;3.38;;
13879;SDS011;7010;48.200;16.332;2023-03-31T09:48:49;3.47;;;2.35;;
13879;SDS011;7010;48.200;16.332;2023-03-31T09:51:23;2.75;;;2.55;;
13879;SDS011;7010;48.200;16.332;2023-03-31T09:53:57;2.53;;;2.22;;
13879;SDS011;7010;48.200;16.332;2023-03-31T09:56:45;10.63;;;3.05;;
13879;SDS011;7010;48.200;16.332;2023-03-31T09:59:16;3.47;;;2.88;;
13879;SDS011;7010;48.200;16.332;2023-03-31T10:01:46;3.22;;;2.95;;
13879;SDS011;7010;48.200;16.332;2023-03-31T10:04:18;3.30;;;2.78;;
13879;SDS011;7010;48.200;16.332;2023-03-31T10:06:49;2.80;;;2.60;;
13879;SDS011;7010;48.200;16.332;2023-03-31T10:09:19;2.75;;;2.53;;
13879;SDS011;7010;48.200;16.332;2023-03-31T10:11:56;2.58;;;2.38;;
13879;SDS011;7010;48.200;16.332;2023-03-31T10:14:31;2.85;;;2.58;;
13879;SDS011;7010;48.200;16.332;2023-03-31T10:17:05;3.58;;;3.28;;
13879;SDS011;7010;48.200;16.332;2023-03-31T10:19:34;2.50;;;2.30;;
13879;SDS011;7010;48.200;16.332;2023-03-31T10:22:04;3.33;;;3.03;;
13879;SDS011;7010;48.200;16.332;2023-03-31T10:24:42;3.55;;;2.65;;
13879;SDS011;7010;48.200;16.332;2023-03-31T10:27:18;4.18;;;3.00;;
13879;SDS011;7010;48.200;16.332;2023-03-31T10:29:50;3.47;;;3.10;;
13879;SDS011;7010;48.200;16.332;2023-03-31T10:32:22;2.75;;;2.55;;
13879;SDS011;7010;48.200;16.332;2023-03-31T10:34:54;3.00;;;2.67;;
13879;SDS011;7010;48.200;16.332;2023-03-31T10:37:25;2.63;;;2.42;;
13879;SDS011;7010;48.200;16.332;2023-03-31T10:39:57;6.35;;;2.88;;
13879;SDS011;7010;48.200;16.332;2023-03-31T10:42:28;3.88;;;2.65;;
13879;SDS011;7010;48.200;16.332;2023-03-31T10:45:09;2.63;;;2.42;;
13879;SDS011;7010;48.200;16.332;2023-03-31T10:47:55;2.50;;;2.30;;
13879;SDS011;7010;48.200;16.332;2023-03-31T10:50:26;3.15;;;2.85;;
13879;SDS011;7010;48.200;16.332;2023-03-31T10:53:00;3.72;;;2.45;;
13879;SDS011;7010;48.200;16.332;2023-03-31T10:55:32;3.42;;;2.80;;
13879;SDS011;7010;48.200;16.332;2023-03-31T10:58:08;7.78;;;3.15;;
13879;SDS011;7010;48.200;16.332;2023-03-31T11:00:50;4.00;;;3.42;;
13879;SDS011;7010;48.200;16.332;2023-03-31T11:03:34;3.45;;;2.78;;
13879;SDS011;7010;48.200;16.332;2023-03-31T11:06:13;4.88;;;3.78;;
13879;SDS011;7010;48.200;16.332;2023-03-31T11:08:49;4.70;;;3.58;;
13879;SDS011;7010;48.200;16.332;2023-03-31T11:11:37;4.32;;;3.63;;
13879;SDS011;7010;48.200;16.332;2023-03-31T11:14:22;10.23;;;3.33;;
13879;SDS011;7010;48.200;16.332;2023-03-31T11:17:01;2.78;;;2.40;;
13879;SDS011;7010;48.200;16.332;2023-03-31T11:19:38;3.78;;;2.92;;
13879;SDS011;7010;48.200;16.332;2023-03-31T11:22:13;3.00;;;2.78;;
13879;SDS011;7010;48.200;16.332;2023-03-31T11:25:10;5.13;;;2.88;;
13879;SDS011;7010;48.200;16.332;2023-03-31T11:30:56;5.97;;;3.30;;
13879;SDS011;7010;48.200;16.332;2023-03-31T11:33:35;4.03;;;3.72;;
13879;SDS011;7010;48.200;16.332;2023-03-31T11:36:17;4.57;;;2.83;;
13879;SDS011;7010;48.200;16.332;2023-03-31T11:39:00;2.85;;;2.50;;
13879;SDS011;7010;48.200;16.332;2023-03-31T11:41:38;2.95;;;2.65;;
13879;SDS011;7010;48.200;16.332;2023-03-31T11:44:12;2.63;;;2.40;;
13879;SDS011;7010;48.200;16.332;2023-03-31T11:46:45;3.08;;;2.78;;
13879;SDS011;7010;48.200;16.332;2023-03-31T11:49:17;2.72;;;2.40;;
13879;SDS011;7010;48.200;16.332;2023-03-31T11:51:50;2.70;;;2.50;;
13879;SDS011;7010;48.200;16.332;2023-03-31T11:54:23;2.50;;;2.30;;
13879;SDS011;7010;48.200;16.332;2023-03-31T11:56:57;2.50;;;2.30;;
13879;SDS011;7010;48.200;16.332;2023-03-31T11:59:30;2.95;;;2.65;;
13879;SDS011;7010;48.200;16.332;2023-03-31T12:02:03;2.83;;;2.35;;
13879;SDS011;7010;48.200;16.332;2023-03-31T12:04:43;2.95;;;2.28;;
13879;SDS011;7010;48.200;16.332;2023-03-31T12:07:19;2.35;;;2.15;;
13879;SDS011;7010;48.200;16.332;2023-03-31T12:09:52;7.72;;;2.65;;
13879;SDS011;7010;48.200;16.332;2023-03-31T12:12:31;2.65;;;2.30;;
13879;SDS011;7010;48.200;16.332;2023-03-31T12:15:05;2.60;;;2.40;;
13879;SDS011;7010;48.200;16.332;2023-03-31T12:17:43;2.90;;;2.30;;
13879;SDS011;7010;48.200;16.332;2023-03-31T12:20:17;2.72;;;2.30;;
13879;SDS011;7010;48.200;16.332;2023-03-31T12:22:52;2.90;;;2.53;;
13879;SDS011;7010;48.200;16.332;2023-03-31T12:25:22;2.35;;;1.83;;
13879;SDS011;7010;48.200;16.332;2023-03-31T12:27:52;5.13;;;2.20;;
13879;SDS011;7010;48.200;16.332;2023-03-31T12:30:25;2.75;;;2.55;;
13879;SDS011;7010;48.200;16.332;2023-03-31T12:33:00;3.63;;;3.17;;
13879;SDS011;7010;48.200;16.332;2023-03-31T12:35:35;2.58;;;2.10;;
13879;SDS011;7010;48.200;16.332;2023-03-31T12:41:14;2.55;;;2.35;;
13879;SDS011;7010;48.200;16.332;2023-03-31T12:44:00;3.67;;;2.92;;
13879;SDS011;7010;48.200;16.332;2023-03-31T12:46:42;2.67;;;2.47;;
13879;SDS011;7010;48.200;16.332;2023-03-31T12:49:28;2.75;;;2.55;;
13879;SDS011;7010;48.200;16.332;2023-03-31T12:52:11;3.15;;;2.40;;
13879;SDS011;7010;48.200;16.332;2023-03-31T12:57:48;2.40;;;2.20;;
13879;SDS011;7010;48.200;16.332;2023-03-31T13:00:21;2.70;;;2.47;;
13879;SDS011;7010;48.200;16.332;2023-03-31T13:05:54;5.15;;;2.17;;
13879;SDS011;7010;48.200;16.332;2023-03-31T13:11:21;3.60;;;2.80;;
13879;SDS011;7010;48.200;16.332;2023-03-31T13:14:02;4.57;;;2.35;;
13879;SDS011;7010;48.200;16.332;2023-03-31T13:16:32;2.53;;;2.17;;
13879;SDS011;7010;48.200;16.332;2023-03-31T13:19:03;3.92;;;2.58;;
13879;SDS011;7010;48.200;16.332;2023-03-31T13:21:33;2.83;;;2.53;;
13879;SDS011;7010;48.200;16.332;2023-03-31T13:24:20;3.63;;;2.28;;
13879;SDS011;7010;48.200;16.332;2023-03-31T13:26:49;4.57;;;2.85;;
13879;SDS011;7010;48.200;16.332;2023-03-31T13:29:21;3.30;;;2.20;;
13879;SDS011;7010;48.200;16.332;2023-03-31T13:32:05;3.40;;;2.70;;
13879;SDS011;7010;48.200;16.332;2023-03-31T13:34:46;2.17;;;1.98;;
13879;SDS011;7010;48.200;16.332;2023-03-31T13:37:47;3.00;;;1.58;;
13879;SDS011;7010;48.200;16.332;2023-03-31T13:40:47;1.52;;;1.45;;
13879;SDS011;7010;48.200;16.332;2023-03-31T13:49:32;2.90;;;1.63;;
13879;SDS011;7010;48.200;16.332;2023-03-31T13:52:15;2.08;;;1.90;;
13879;SDS011;7010;48.200;16.332;2023-03-31T13:54:59;2.00;;;1.90;;
13879;SDS011;7010;48.200;16.332;2023-03-31T13:58:07;1.85;;;1.48;;
13879;SDS011;7010;48.200;16.332;2023-03-31T14:01:14;2.38;;;2.17;;
13879;SDS011;7010;48.200;16.332;2023-03-31T14:04:18;2.58;;;1.92;;
13879;SDS011;7010;48.200;16.332;2023-03-31T14:07:09;1.80;;;1.70;;
13879;SDS011;7010;48.200;16.332;2023-03-31T14:09:44;1.90;;;1.73;;
13879;SDS011;7010;48.200;16.332;2023-03-31T14:12:20;8.05;;;2.33;;
13879;SDS011;7010;48.200;16.332;2023-03-31T14:14:51;7.88;;;1.65;;
13879;SDS011;7010;48.200;16.332;2023-03-31T14:17:21;1.90;;;1.80;;
13879;SDS011;7010;48.200;16.332;2023-03-31T14:19:57;2.38;;;1.75;;
13879;SDS011;7010;48.200;16.332;2023-03-31T14:22:41;2.72;;;1.83;;
13879;SDS011;7010;48.200;16.332;2023-03-31T14:25:16;2.17;;;1.80;;
13879;SDS011;7010;48.200;16.332;2023-03-31T14:27:57;3.70;;;2.17;;
13879;SDS011;7010;48.200;16.332;2023-03-31T14:30:34;2.33;;;2.13;;
13879;SDS011;7010;48.200;16.332;2023-03-31T14:33:16;2.38;;;2.17;;
13879;SDS011;7010;48.200;16.332;2023-03-31T14:35:54;2.90;;;1.85;;
13879;SDS011;7010;48.200;16.332;2023-03-31T14:38:28;4.57;;;1.90;;
13879;SDS011;7010;48.200;16.332;2023-03-31T14:40:57;5.10;;;2.78;;
13879;SDS011;7010;48.200;16.332;2023-03-31T14:43:29;1.63;;;1.52;;
13879;SDS011;7010;48.200;16.332;2023-03-31T14:46:00;10.18;;;2.17;;
13879;SDS011;7010;48.200;16.332;2023-03-31T14:48:30;2.05;;;1.83;;
13879;SDS011;7010;48.200;16.332;2023-03-31T14:51:02;2.90;;;1.88;;
13879;SDS011;7010;48.200;16.332;2023-03-31T14:53:36;1.83;;;1.73;;
13879;SDS011;7010;48.200;16.332;2023-03-31T14:56:06;2.10;;;1.88;;
13879;SDS011;7010;48.200;16.332;2023-03-31T14:58:39;2.35;;;2.15;;
13879;SDS011;7010;48.200;16.332;2023-03-31T15:01:11;3.45;;;2.05;;
13879;SDS011;7010;48.200;16.332;2023-03-31T15:03:43;2.35;;;1.80;;
13879;SDS011;7010;48.200;16.332;2023-03-31T15:06:13;1.70;;;1.60;;
13879;SDS011;7010;48.200;16.332;2023-03-31T15:08:43;1.95;;;1.85;;
13879;SDS011;7010;48.200;16.332;2023-03-31T15:11:13;6.05;;;2.10;;
13879;SDS011;7010;48.200;16.332;2023-03-31T15:13:48;2.97;;;2.67;;
13879;SDS011;7010;48.200;16.332;2023-03-31T15:16:31;2.10;;;1.90;;
13879;SDS011;7010;48.200;16.332;2023-03-31T15:19:12;1.52;;;1.42;;
13879;SDS011;7010;48.200;16.332;2023-03-31T15:21:43;2.13;;;1.77;;
13879;SDS011;7010;48.200;16.332;2023-03-31T15:24:12;1.60;;;1.50;;
13879;SDS011;7010;48.200;16.332;2023-03-31T15:26:42;5.28;;;1.65;;
13879;SDS011;7010;48.200;16.332;2023-03-31T15:29:18;0.88;;;0.88;;
13879;SDS011;7010;48.200;16.332;2023-03-31T15:31:48;1.75;;;0.85;;
13879;SDS011;7010;48.200;16.332;2023-03-31T15:34:19;0.93;;;0.90;;
13879;SDS011;7010;48.200;16.332;2023-03-31T15:36:52;1.45;;;1.20;;
13879;SDS011;7010;48.200;16.332;2023-03-31T15:39:22;3.13;;;1.23;;
13879;SDS011;7010;48.200;16.332;2023-03-31T15:41:52;1.27;;;0.70;;
13879;SDS011;7010;48.200;16.332;2023-03-31T15:44:36;1.10;;;1.02;;
13879;SDS011;7010;48.200;16.332;2023-03-31T15:47:07;1.52;;;1.20;;
13879;SDS011;7010;48.200;16.332;2023-03-31T15:49:51;1.90;;;1.40;;
13879;SDS011;7010;48.200;16.332;2023-03-31T15:52:23;1.17;;;1.08;;
13879;SDS011;7010;48.200;16.332;2023-03-31T15:54:55;2.50;;;1.52;;
13879;SDS011;7010;48.200;16.332;2023-03-31T15:57:29;1.48;;;1.38;;
13879;SDS011;7010;48.200;16.332;2023-03-31T16:00:02;1.27;;;1.20;;
13879;SDS011;7010;48.200;16.332;2023-03-31T16:02:37;2.30;;;1.80;;
13879;SDS011;7010;48.200;16.332;2023-03-31T16:05:20;1.65;;;1.55;;
13879;SDS011;7010;48.200;16.332;2023-03-31T16:07:55;2.70;;;2.42;;